sensor_id;sensor_type;location;lat;lon;timestamp;P1;durP1;ratioP1;P2;durP2;ratioP2
33738;SDS011;20063;51.730;11.110;2023-04-02T00:08:01;6.60;;;5.10;;
33738;SDS011;20063;51.730;11.110;2023-04-02T00:10:35;6.45;;;4.63;;
33738;SDS011;20063;51.730;11.110;2023-04-02T00:15:29;8.25;;;6.10;;
33738;SDS011;20063;51.730;11.110;2023-04-02T00:17:55;7.57;;;6.10;;
33738;SDS011;20063;51.730;11.110;2023-04-02T00:20:21;11.38;;;6.38;;
33738;SDS011;20063;51.730;11.110;2023-04-02T00:22:50;6.30;;;5.57;;
33738;SDS011;20063;51.730;11.110;2023-04-02T00:25:15;9.75;;;6.53;;
33738;SDS011;20063;51.730;11.110;2023-04-02T00:27:41;11.10;;;7.25;;
33738;SDS011;20063;51.730;11.110;2023-04-02T00:30:09;11.35;;;7.78;;
33738;SDS011;20063;51.730;11.110;2023-04-02T00:32:39;11.77;;;7.18;;
33738;SDS011;20063;51.730;11.110;2023-04-02T00:35:16;9.48;;;7.05;;
33738;SDS011;20063;51.730;11.110;2023-04-02T00:37:47;16.95;;;8.25;;
33738;SDS011;20063;51.730;11.110;2023-04-02T00:40:22;9.98;;;7.35;;
33738;SDS011;20063;51.730;11.110;2023-04-02T00:42:51;16.35;;;8.32;;
33738;SDS011;20063;51.730;11.110;2023-04-02T00:45:22;11.00;;;7.43;;
33738;SDS011;20063;51.730;11.110;2023-04-02T00:47:54;10.50;;;7.20;;
33738;SDS011;20063;51.730;11.110;2023-04-02T00:50:24;13.35;;;8.13;;
33738;SDS011;20063;51.730;11.110;2023-04-02T00:53:03;12.68;;;8.38;;
33738;SDS011;20063;51.730;11.110;2023-04-02T00:55:34;12.82;;;8.98;;
33738;SDS011;20063;51.730;11.110;2023-04-02T00:58:03;11.70;;;8.75;;
33738;SDS011;20063;51.730;11.110;2023-04-02T01:00:36;15.13;;;10.18;;
33738;SDS011;20063;51.730;11.110;2023-04-02T01:05:46;16.48;;;9.95;;
33738;SDS011;20063;51.730;11.110;2023-04-02T01:22:01;18.38;;;11.43;;
33738;SDS011;20063;51.730;11.110;2023-04-02T01:24:33;14.90;;;11.30;;
33738;SDS011;20063;51.730;11.110;2023-04-02T01:27:03;23.15;;;13.00;;
33738;SDS011;20063;51.730;11.110;2023-04-02T01:29:40;15.50;;;11.43;;
33738;SDS011;20063;51.730;11.110;2023-04-02T01:32:11;19.85;;;11.93;;
33738;SDS011;20063;51.730;11.110;2023-04-02T01:34:39;26.42;;;13.13;;
33738;SDS011;20063;51.730;11.110;2023-04-02T01:40:17;26.73;;;13.27;;
33738;SDS011;20063;51.730;11.110;2023-04-02T01:43:15;30.48;;;13.68;;
33738;SDS011;20063;51.730;11.110;2023-04-02T01:46:04;26.35;;;14.70;;
33738;SDS011;20063;51.730;11.110;2023-04-02T01:48:48;31.23;;;14.82;;
33738;SDS011;20063;51.730;11.110;2023-04-02T01:51:28;27.13;;;14.65;;
33738;SDS011;20063;51.730;11.110;2023-04-02T01:53:57;23.60;;;13.18;;
33738;SDS011;20063;51.730;11.110;2023-04-02T01:56:25;34.15;;;15.75;;
33738;SDS011;20063;51.730;11.110;2023-04-02T01:58:52;26.15;;;13.25;;
33738;SDS011;20063;51.730;11.110;2023-04-02T02:01:18;24.60;;;12.82;;
33738;SDS011;20063;51.730;11.110;2023-04-02T02:03:48;24.42;;;12.85;;
33738;SDS011;20063;51.730;11.110;2023-04-02T02:06:15;20.52;;;11.38;;
33738;SDS011;20063;51.730;11.110;2023-04-02T02:08:50;20.83;;;12.52;;
33738;SDS011;20063;51.730;11.110;2023-04-02T02:11:23;20.15;;;12.85;;
33738;SDS011;20063;51.730;11.110;2023-04-02T02:13:54;19.90;;;12.60;;
33738;SDS011;20063;51.730;11.110;2023-04-02T02:16:21;17.38;;;12.30;;
33738;SDS011;20063;51.730;11.110;2023-04-02T02:18:50;20.58;;;11.52;;
33738;SDS011;20063;51.730;11.110;2023-04-02T02:21:21;20.95;;;12.07;;
33738;SDS011;20063;51.730;11.110;2023-04-02T02:23:48;24.52;;;12.38;;
33738;SDS011;20063;51.730;11.110;2023-04-02T02:26:14;17.63;;;11.77;;
33738;SDS011;20063;51.730;11.110;2023-04-02T02:28:43;19.42;;;12.35;;
33738;SDS011;20063;51.730;11.110;2023-04-02T02:31:17;22.38;;;12.18;;
33738;SDS011;20063;51.730;11.110;2023-04-02T02:33:50;18.63;;;10.90;;
33738;SDS011;20063;51.730;11.110;2023-04-02T02:36:21;22.77;;;11.95;;
33738;SDS011;20063;51.730;11.110;2023-04-02T02:38:57;19.45;;;10.52;;
33738;SDS011;20063;51.730;11.110;2023-04-02T02:41:38;20.25;;;10.98;;
33738;SDS011;20063;51.730;11.110;2023-04-02T02:46:53;18.15;;;10.45;;
33738;SDS011;20063;51.730;11.110;2023-04-02T02:49:24;24.10;;;12.10;;
33738;SDS011;20063;51.730;11.110;2023-04-02T02:51:57;15.48;;;9.57;;
33738;SDS011;20063;51.730;11.110;2023-04-02T02:54:27;20.20;;;11.07;;
33738;SDS011;20063;51.730;11.110;2023-04-02T02:57:02;22.42;;;11.32;;
33738;SDS011;20063;51.730;11.110;2023-04-02T02:59:33;20.80;;;10.20;;
33738;SDS011;20063;51.730;11.110;2023-04-02T03:01:59;21.73;;;10.25;;
33738;SDS011;20063;51.730;11.110;2023-04-02T03:04:28;22.65;;;10.18;;
33738;SDS011;20063;51.730;11.110;2023-04-02T03:06:55;20.80;;;9.93;;
33738;SDS011;20063;51.730;11.110;2023-04-02T03:14:42;22.50;;;9.38;;
33738;SDS011;20063;51.730;11.110;2023-04-02T03:17:29;22.05;;;10.20;;
33738;SDS011;20063;51.730;11.110;2023-04-02T03:23:18;18.75;;;9.52;;
33738;SDS011;20063;51.730;11.110;2023-04-02T03:25:56;21.77;;;10.23;;
33738;SDS011;20063;51.730;11.110;2023-04-02T03:28:35;17.67;;;9.73;;
33738;SDS011;20063;51.730;11.110;2023-04-02T03:31:07;17.50;;;9.68;;
33738;SDS011;20063;51.730;11.110;2023-04-02T03:33:45;23.13;;;10.15;;
33738;SDS011;20063;51.730;11.110;2023-04-02T03:38:53;13.32;;;8.68;;
33738;SDS011;20063;51.730;11.110;2023-04-02T03:41:51;16.73;;;8.77;;
33738;SDS011;20063;51.730;11.110;2023-04-02T03:46:53;15.85;;;8.02;;
33738;SDS011;20063;51.730;11.110;2023-04-02T03:52:40;29.00;;;9.85;;
33738;SDS011;20063;51.730;11.110;2023-04-02T03:55:10;19.67;;;9.40;;
33738;SDS011;20063;51.730;11.110;2023-04-02T03:57:44;17.17;;;8.32;;
33738;SDS011;20063;51.730;11.110;2023-04-02T04:02:50;13.02;;;7.78;;
33738;SDS011;20063;51.730;11.110;2023-04-02T04:07:55;15.82;;;6.88;;
33738;SDS011;20063;51.730;11.110;2023-04-02T04:10:42;15.82;;;7.55;;
33738;SDS011;20063;51.730;11.110;2023-04-02T04:13:14;9.48;;;6.55;;
33738;SDS011;20063;51.730;11.110;2023-04-02T04:15:47;14.18;;;7.03;;
33738;SDS011;20063;51.730;11.110;2023-04-02T04:18:30;16.40;;;7.07;;
33738;SDS011;20063;51.730;11.110;2023-04-02T04:21:04;13.98;;;7.60;;
33738;SDS011;20063;51.730;11.110;2023-04-02T04:23:39;11.93;;;6.78;;
33738;SDS011;20063;51.730;11.110;2023-04-02T04:26:22;18.20;;;7.15;;
33738;SDS011;20063;51.730;11.110;2023-04-02T04:32:30;16.48;;;8.00;;
33738;SDS011;20063;51.730;11.110;2023-04-02T04:35:18;20.63;;;7.93;;
33738;SDS011;20063;51.730;11.110;2023-04-02T04:38:02;12.80;;;6.97;;
33738;SDS011;20063;51.730;11.110;2023-04-02T04:40:45;14.63;;;7.68;;
33738;SDS011;20063;51.730;11.110;2023-04-02T04:43:18;12.35;;;6.85;;
33738;SDS011;20063;51.730;11.110;2023-04-02T04:45:58;16.10;;;7.35;;
33738;SDS011;20063;51.730;11.110;2023-04-02T04:51:06;17.35;;;7.30;;
33738;SDS011;20063;51.730;11.110;2023-04-02T04:53:44;17.30;;;7.38;;
33738;SDS011;20063;51.730;11.110;2023-04-02T04:56:29;14.32;;;8.48;;
33738;SDS011;20063;51.730;11.110;2023-04-02T05:01:39;18.05;;;8.13;;
33738;SDS011;20063;51.730;11.110;2023-04-02T05:06:56;11.82;;;8.05;;
33738;SDS011;20063;51.730;11.110;2023-04-02T05:15:13;12.30;;;6.68;;
33738;SDS011;20063;51.730;11.110;2023-04-02T05:21:02;14.20;;;7.38;;
33738;SDS011;20063;51.730;11.110;2023-04-02T05:26:39;21.13;;;8.60;;
33738;SDS011;20063;51.730;11.110;2023-04-02T05:29:17;15.25;;;6.53;;
33738;SDS011;20063;51.730;11.110;2023-04-02T05:34:37;12.43;;;6.32;;
33738;SDS011;20063;51.730;11.110;2023-04-02T05:37:11;11.20;;;5.88;;
33738;SDS011;20063;51.730;11.110;2023-04-02T05:39:43;9.77;;;5.60;;
33738;SDS011;20063;51.730;11.110;2023-04-02T05:42:14;15.55;;;5.53;;
33738;SDS011;20063;51.730;11.110;2023-04-02T05:47:19;12.93;;;5.68;;
33738;SDS011;20063;51.730;11.110;2023-04-02T05:49:49;12.80;;;5.97;;
33738;SDS011;20063;51.730;11.110;2023-04-02T05:52:29;12.07;;;6.03;;
33738;SDS011;20063;51.730;11.110;2023-04-02T05:57:42;16.92;;;5.32;;
33738;SDS011;20063;51.730;11.110;2023-04-02T06:03:27;15.95;;;6.45;;
33738;SDS011;20063;51.730;11.110;2023-04-02T06:06:02;9.77;;;6.03;;
33738;SDS011;20063;51.730;11.110;2023-04-02T06:08:41;14.20;;;5.53;;
33738;SDS011;20063;51.730;11.110;2023-04-02T06:11:25;11.57;;;5.63;;
33738;SDS011;20063;51.730;11.110;2023-04-02T06:13:55;12.75;;;5.95;;
33738;SDS011;20063;51.730;11.110;2023-04-02T06:16:22;10.27;;;5.63;;
33738;SDS011;20063;51.730;11.110;2023-04-02T06:18:51;12.48;;;5.50;;
33738;SDS011;20063;51.730;11.110;2023-04-02T06:21:16;12.05;;;5.30;;
33738;SDS011;20063;51.730;11.110;2023-04-02T06:23:46;16.02;;;5.47;;
33738;SDS011;20063;51.730;11.110;2023-04-02T06:26:26;11.77;;;6.07;;
33738;SDS011;20063;51.730;11.110;2023-04-02T06:34:00;19.95;;;6.10;;
33738;SDS011;20063;51.730;11.110;2023-04-02T06:36:27;14.18;;;5.30;;
33738;SDS011;20063;51.730;11.110;2023-04-02T06:38:58;11.27;;;5.18;;
33738;SDS011;20063;51.730;11.110;2023-04-02T06:41:31;13.10;;;5.85;;
33738;SDS011;20063;51.730;11.110;2023-04-02T06:43:57;9.85;;;4.68;;
33738;SDS011;20063;51.730;11.110;2023-04-02T06:46:49;15.25;;;5.43;;
33738;SDS011;20063;51.730;11.110;2023-04-02T06:49:22;9.00;;;4.95;;
33738;SDS011;20063;51.730;11.110;2023-04-02T06:51:54;13.15;;;5.00;;
33738;SDS011;20063;51.730;11.110;2023-04-02T06:54:22;17.25;;;7.45;;
33738;SDS011;20063;51.730;11.110;2023-04-02T06:56:49;16.33;;;5.65;;
33738;SDS011;20063;51.730;11.110;2023-04-02T06:59:17;11.32;;;5.10;;
33738;SDS011;20063;51.730;11.110;2023-04-02T07:01:48;13.35;;;4.82;;
33738;SDS011;20063;51.730;11.110;2023-04-02T07:04:17;12.20;;;5.18;;
33738;SDS011;20063;51.730;11.110;2023-04-02T07:06:44;12.98;;;5.22;;
33738;SDS011;20063;51.730;11.110;2023-04-02T07:09:10;9.00;;;5.50;;
33738;SDS011;20063;51.730;11.110;2023-04-02T07:11:37;9.88;;;4.85;;
33738;SDS011;20063;51.730;11.110;2023-04-02T07:14:03;13.30;;;5.60;;
33738;SDS011;20063;51.730;11.110;2023-04-02T07:16:30;12.35;;;5.53;;
33738;SDS011;20063;51.730;11.110;2023-04-02T07:18:57;9.43;;;4.43;;
33738;SDS011;20063;51.730;11.110;2023-04-02T07:21:24;12.88;;;5.13;;
33738;SDS011;20063;51.730;11.110;2023-04-02T07:23:53;7.80;;;5.05;;
33738;SDS011;20063;51.730;11.110;2023-04-02T07:26:23;8.23;;;4.85;;
33738;SDS011;20063;51.730;11.110;2023-04-02T07:28:51;12.90;;;5.65;;
33738;SDS011;20063;51.730;11.110;2023-04-02T07:31:21;12.82;;;5.20;;
33738;SDS011;20063;51.730;11.110;2023-04-02T07:33:49;13.35;;;5.60;;
33738;SDS011;20063;51.730;11.110;2023-04-02T07:36:17;12.18;;;5.35;;
33738;SDS011;20063;51.730;11.110;2023-04-02T07:38:45;11.32;;;4.25;;
33738;SDS011;20063;51.730;11.110;2023-04-02T07:41:11;6.30;;;3.85;;
33738;SDS011;20063;51.730;11.110;2023-04-02T07:43:37;11.40;;;4.68;;
33738;SDS011;20063;51.730;11.110;2023-04-02T07:46:05;6.93;;;4.25;;
33738;SDS011;20063;51.730;11.110;2023-04-02T07:48:32;12.18;;;4.88;;
33738;SDS011;20063;51.730;11.110;2023-04-02T07:50:58;14.93;;;4.75;;
33738;SDS011;20063;51.730;11.110;2023-04-02T07:55:58;7.65;;;4.30;;
33738;SDS011;20063;51.730;11.110;2023-04-02T07:58:26;15.07;;;5.70;;
33738;SDS011;20063;51.730;11.110;2023-04-02T08:00:53;12.48;;;4.95;;
33738;SDS011;20063;51.730;11.110;2023-04-02T08:03:19;11.40;;;5.20;;
33738;SDS011;20063;51.730;11.110;2023-04-02T08:05:50;18.73;;;5.35;;
33738;SDS011;20063;51.730;11.110;2023-04-02T08:08:17;10.68;;;4.85;;
33738;SDS011;20063;51.730;11.110;2023-04-02T08:10:43;10.73;;;5.03;;
33738;SDS011;20063;51.730;11.110;2023-04-02T08:13:09;6.57;;;4.95;;
33738;SDS011;20063;51.730;11.110;2023-04-02T08:15:35;16.77;;;5.70;;
33738;SDS011;20063;51.730;11.110;2023-04-02T08:18:00;9.05;;;4.90;;
33738;SDS011;20063;51.730;11.110;2023-04-02T08:20:26;8.68;;;5.10;;
33738;SDS011;20063;51.730;11.110;2023-04-02T08:22:52;7.20;;;4.78;;
33738;SDS011;20063;51.730;11.110;2023-04-02T08:25:17;11.25;;;5.57;;
33738;SDS011;20063;51.730;11.110;2023-04-02T08:27:45;11.55;;;4.57;;
33738;SDS011;20063;51.730;11.110;2023-04-02T08:30:15;17.95;;;5.20;;
33738;SDS011;20063;51.730;11.110;2023-04-02T08:32:41;8.23;;;4.55;;
33738;SDS011;20063;51.730;11.110;2023-04-02T08:35:08;11.50;;;5.18;;
33738;SDS011;20063;51.730;11.110;2023-04-02T08:37:34;9.50;;;4.55;;
33738;SDS011;20063;51.730;11.110;2023-04-02T08:40:00;10.93;;;5.28;;
33738;SDS011;20063;51.730;11.110;2023-04-02T08:48:12;13.80;;;4.78;;
33738;SDS011;20063;51.730;11.110;2023-04-02T08:50:40;12.98;;;4.95;;
33738;SDS011;20063;51.730;11.110;2023-04-02T08:53:12;9.70;;;4.90;;
33738;SDS011;20063;51.730;11.110;2023-04-02T09:01:05;6.80;;;4.22;;
33738;SDS011;20063;51.730;11.110;2023-04-02T09:03:38;9.23;;;4.10;;
33738;SDS011;20063;51.730;11.110;2023-04-02T09:06:07;10.57;;;4.93;;
33738;SDS011;20063;51.730;11.110;2023-04-02T09:08:37;10.57;;;4.45;;
33738;SDS011;20063;51.730;11.110;2023-04-02T09:13:41;17.40;;;5.20;;
33738;SDS011;20063;51.730;11.110;2023-04-02T09:16:14;9.32;;;4.72;;
33738;SDS011;20063;51.730;11.110;2023-04-02T09:18:41;12.27;;;4.68;;
33738;SDS011;20063;51.730;11.110;2023-04-02T09:23:47;9.95;;;4.25;;
33738;SDS011;20063;51.730;11.110;2023-04-02T09:26:23;13.50;;;5.70;;
33738;SDS011;20063;51.730;11.110;2023-04-02T09:28:54;17.60;;;5.78;;
33738;SDS011;20063;51.730;11.110;2023-04-02T09:34:30;15.40;;;5.35;;
33738;SDS011;20063;51.730;11.110;2023-04-02T09:37:16;14.48;;;5.78;;
33738;SDS011;20063;51.730;11.110;2023-04-02T09:39:44;12.05;;;4.40;;
33738;SDS011;20063;51.730;11.110;2023-04-02T09:42:27;10.32;;;4.60;;
33738;SDS011;20063;51.730;11.110;2023-04-02T09:45:10;8.40;;;4.57;;
33738;SDS011;20063;51.730;11.110;2023-04-02T09:47:48;12.02;;;5.10;;
33738;SDS011;20063;51.730;11.110;2023-04-02T09:52:43;8.77;;;4.22;;
33738;SDS011;20063;51.730;11.110;2023-04-02T09:57:39;6.68;;;4.13;;
33738;SDS011;20063;51.730;11.110;2023-04-02T10:00:19;9.60;;;4.57;;
33738;SDS011;20063;51.730;11.110;2023-04-02T10:02:59;9.77;;;4.20;;
33738;SDS011;20063;51.730;11.110;2023-04-02T10:05:28;8.98;;;4.65;;
33738;SDS011;20063;51.730;11.110;2023-04-02T10:08:04;10.25;;;4.32;;
33738;SDS011;20063;51.730;11.110;2023-04-02T10:10:39;9.70;;;4.10;;
33738;SDS011;20063;51.730;11.110;2023-04-02T10:13:15;7.43;;;4.47;;
33738;SDS011;20063;51.730;11.110;2023-04-02T10:15:56;9.18;;;4.75;;
33738;SDS011;20063;51.730;11.110;2023-04-02T10:18:32;13.50;;;4.70;;
33738;SDS011;20063;51.730;11.110;2023-04-02T10:21:11;6.28;;;4.32;;
33738;SDS011;20063;51.730;11.110;2023-04-02T10:23:39;8.27;;;4.00;;
33738;SDS011;20063;51.730;11.110;2023-04-02T10:28:59;15.90;;;5.03;;
33738;SDS011;20063;51.730;11.110;2023-04-02T10:31:51;9.98;;;4.32;;
33738;SDS011;20063;51.730;11.110;2023-04-02T10:39:52;13.57;;;4.75;;
33738;SDS011;20063;51.730;11.110;2023-04-02T10:45:02;10.30;;;5.05;;
33738;SDS011;20063;51.730;11.110;2023-04-02T10:47:47;8.65;;;4.82;;
33738;SDS011;20063;51.730;11.110;2023-04-02T10:50:23;7.15;;;3.95;;
33738;SDS011;20063;51.730;11.110;2023-04-02T10:55:32;11.25;;;4.22;;
33738;SDS011;20063;51.730;11.110;2023-04-02T11:00:40;14.10;;;4.40;;
33738;SDS011;20063;51.730;11.110;2023-04-02T11:03:13;10.27;;;3.75;;
33738;SDS011;20063;51.730;11.110;2023-04-02T11:06:04;6.80;;;3.83;;
33738;SDS011;20063;51.730;11.110;2023-04-02T11:08:42;5.25;;;3.00;;
33738;SDS011;20063;51.730;11.110;2023-04-02T11:11:12;9.77;;;2.90;;
33738;SDS011;20063;51.730;11.110;2023-04-02T11:16:21;6.13;;;3.37;;
33738;SDS011;20063;51.730;11.110;2023-04-02T11:21:57;4.70;;;2.20;;
33738;SDS011;20063;51.730;11.110;2023-04-02T11:24:44;5.70;;;2.67;;
33738;SDS011;20063;51.730;11.110;2023-04-02T11:27:26;9.73;;;3.92;;
33738;SDS011;20063;51.730;11.110;2023-04-02T11:32:49;9.70;;;2.80;;
33738;SDS011;20063;51.730;11.110;2023-04-02T11:37:50;6.68;;;2.67;;
33738;SDS011;20063;51.730;11.110;2023-04-02T11:42:43;7.22;;;3.47;;
33738;SDS011;20063;51.730;11.110;2023-04-02T11:48:30;6.68;;;3.08;;
33738;SDS011;20063;51.730;11.110;2023-04-02T11:50:39;5.18;;;2.88;;
33738;SDS011;20063;51.730;11.110;2023-04-02T11:55:36;13.50;;;3.80;;
33738;SDS011;20063;51.730;11.110;2023-04-02T12:05:47;7.93;;;2.85;;
33738;SDS011;20063;51.730;11.110;2023-04-02T12:11:28;8.20;;;2.95;;
33738;SDS011;20063;51.730;11.110;2023-04-02T12:13:56;9.10;;;3.10;;
33738;SDS011;20063;51.730;11.110;2023-04-02T12:16:25;7.13;;;2.72;;
33738;SDS011;20063;51.730;11.110;2023-04-02T12:18:56;9.73;;;2.95;;
33738;SDS011;20063;51.730;11.110;2023-04-02T12:21:27;6.18;;;2.35;;
33738;SDS011;20063;51.730;11.110;2023-04-02T12:23:54;11.80;;;3.25;;
33738;SDS011;20063;51.730;11.110;2023-04-02T12:26:31;6.45;;;2.83;;
33738;SDS011;20063;51.730;11.110;2023-04-02T12:31:50;13.70;;;3.20;;
33738;SDS011;20063;51.730;11.110;2023-04-02T12:34:28;7.68;;;2.80;;
33738;SDS011;20063;51.730;11.110;2023-04-02T12:39:26;16.15;;;2.60;;
33738;SDS011;20063;51.730;11.110;2023-04-02T12:41:52;9.18;;;2.53;;
33738;SDS011;20063;51.730;11.110;2023-04-02T12:44:20;4.65;;;2.65;;
33738;SDS011;20063;51.730;11.110;2023-04-02T12:46:47;3.22;;;2.45;;
33738;SDS011;20063;51.730;11.110;2023-04-02T12:52:10;7.05;;;2.38;;
33738;SDS011;20063;51.730;11.110;2023-04-02T12:54:51;9.00;;;2.72;;
33738;SDS011;20063;51.730;11.110;2023-04-02T12:59:50;4.47;;;2.25;;
33738;SDS011;20063;51.730;11.110;2023-04-02T13:02:21;5.72;;;3.03;;
33738;SDS011;20063;51.730;11.110;2023-04-02T13:04:48;7.80;;;3.05;;
33738;SDS011;20063;51.730;11.110;2023-04-02T13:07:16;12.57;;;3.30;;
33738;SDS011;20063;51.730;11.110;2023-04-02T13:09:44;7.88;;;2.58;;
33738;SDS011;20063;51.730;11.110;2023-04-02T13:12:31;6.40;;;2.60;;
33738;SDS011;20063;51.730;11.110;2023-04-02T13:15:07;9.60;;;2.58;;
33738;SDS011;20063;51.730;11.110;2023-04-02T13:17:47;9.73;;;2.85;;
33738;SDS011;20063;51.730;11.110;2023-04-02T13:20:35;7.07;;;2.58;;
33738;SDS011;20063;51.730;11.110;2023-04-02T13:26:40;4.38;;;2.35;;
33738;SDS011;20063;51.730;11.110;2023-04-02T13:28:53;7.22;;;2.63;;
33738;SDS011;20063;51.730;11.110;2023-04-02T13:31:33;6.68;;;2.30;;
33738;SDS011;20063;51.730;11.110;2023-04-02T13:34:01;8.60;;;2.83;;
33738;SDS011;20063;51.730;11.110;2023-04-02T13:36:27;2.60;;;2.17;;
33738;SDS011;20063;51.730;11.110;2023-04-02T13:38:53;12.18;;;2.45;;
33738;SDS011;20063;51.730;11.110;2023-04-02T13:43:46;12.57;;;4.30;;
33738;SDS011;20063;51.730;11.110;2023-04-02T13:46:16;12.43;;;5.13;;
33738;SDS011;20063;51.730;11.110;2023-04-02T13:48:50;15.90;;;5.23;;
33738;SDS011;20063;51.730;11.110;2023-04-02T13:51:17;12.93;;;3.42;;
33738;SDS011;20063;51.730;11.110;2023-04-02T13:53:45;12.88;;;4.85;;
33738;SDS011;20063;51.730;11.110;2023-04-02T13:56:13;9.93;;;3.65;;
33738;SDS011;20063;51.730;11.110;2023-04-02T13:58:40;8.43;;;3.75;;
33738;SDS011;20063;51.730;11.110;2023-04-02T14:01:06;4.38;;;2.10;;
33738;SDS011;20063;51.730;11.110;2023-04-02T14:03:32;7.00;;;2.38;;
33738;SDS011;20063;51.730;11.110;2023-04-02T14:11:34;14.30;;;3.45;;
33738;SDS011;20063;51.730;11.110;2023-04-02T14:21:59;8.88;;;2.28;;
33738;SDS011;20063;51.730;11.110;2023-04-02T14:24:36;9.40;;;2.70;;
33738;SDS011;20063;51.730;11.110;2023-04-02T14:35:37;8.18;;;2.50;;
33738;SDS011;20063;51.730;11.110;2023-04-02T14:38:11;10.02;;;3.85;;
33738;SDS011;20063;51.730;11.110;2023-04-02T14:41:04;20.90;;;9.53;;
33738;SDS011;20063;51.730;11.110;2023-04-02T14:45:57;11.98;;;5.13;;
33738;SDS011;20063;51.730;11.110;2023-04-02T14:50:58;3.63;;;1.85;;
33738;SDS011;20063;51.730;11.110;2023-04-02T14:53:34;6.43;;;2.25;;
33738;SDS011;20063;51.730;11.110;2023-04-02T14:56:32;12.50;;;3.55;;
33738;SDS011;20063;51.730;11.110;2023-04-02T14:59:07;11.32;;;6.20;;
33738;SDS011;20063;51.730;11.110;2023-04-02T15:01:37;20.55;;;8.40;;
33738;SDS011;20063;51.730;11.110;2023-04-02T15:04:11;12.98;;;5.88;;
33738;SDS011;20063;51.730;11.110;2023-04-02T15:06:44;12.35;;;5.15;;
33738;SDS011;20063;51.730;11.110;2023-04-02T15:09:18;8.02;;;3.95;;
33738;SDS011;20063;51.730;11.110;2023-04-02T15:12:12;9.18;;;3.90;;
33738;SDS011;20063;51.730;11.110;2023-04-02T15:14:49;17.95;;;6.38;;
33738;SDS011;20063;51.730;11.110;2023-04-02T15:17:19;14.10;;;6.32;;
33738;SDS011;20063;51.730;11.110;2023-04-02T15:19:45;9.57;;;4.70;;
33738;SDS011;20063;51.730;11.110;2023-04-02T15:22:34;9.55;;;4.88;;
33738;SDS011;20063;51.730;11.110;2023-04-02T15:27:48;9.25;;;3.53;;
33738;SDS011;20063;51.730;11.110;2023-04-02T15:30:26;6.82;;;2.88;;
33738;SDS011;20063;51.730;11.110;2023-04-02T15:35:46;12.32;;;4.10;;
33738;SDS011;20063;51.730;11.110;2023-04-02T15:38:29;8.90;;;3.80;;
33738;SDS011;20063;51.730;11.110;2023-04-02T15:43:50;9.98;;;4.15;;
33738;SDS011;20063;51.730;11.110;2023-04-02T15:52:27;7.63;;;1.95;;
33738;SDS011;20063;51.730;11.110;2023-04-02T16:00:27;7.68;;;2.53;;
33738;SDS011;20063;51.730;11.110;2023-04-02T16:05:46;50.90;;;29.55;;
33738;SDS011;20063;51.730;11.110;2023-04-02T16:11:25;36.63;;;18.23;;
33738;SDS011;20063;51.730;11.110;2023-04-02T16:13:52;77.97;;;39.20;;
33738;SDS011;20063;51.730;11.110;2023-04-02T16:16:43;32.05;;;15.50;;
33738;SDS011;20063;51.730;11.110;2023-04-02T16:24:40;22.52;;;9.23;;
33738;SDS011;20063;51.730;11.110;2023-04-02T16:27:19;13.60;;;5.13;;
33738;SDS011;20063;51.730;11.110;2023-04-02T16:46:18;9.18;;;3.08;;
33738;SDS011;20063;51.730;11.110;2023-04-02T16:52:11;10.27;;;2.45;;
33738;SDS011;20063;51.730;11.110;2023-04-02T16:58:04;6.35;;;2.58;;
33738;SDS011;20063;51.730;11.110;2023-04-02T17:00:26;7.07;;;3.38;;
33738;SDS011;20063;51.730;11.110;2023-04-02T17:11:06;9.52;;;2.80;;
33738;SDS011;20063;51.730;11.110;2023-04-02T17:13:40;6.35;;;1.90;;
33738;SDS011;20063;51.730;11.110;2023-04-02T17:16:23;8.23;;;2.63;;
33738;SDS011;20063;51.730;11.110;2023-04-02T17:19:00;10.57;;;2.63;;
33738;SDS011;20063;51.730;11.110;2023-04-02T17:21:27;11.52;;;3.38;;
33738;SDS011;20063;51.730;11.110;2023-04-02T17:26:31;9.07;;;3.08;;
33738;SDS011;20063;51.730;11.110;2023-04-02T17:29:00;8.00;;;3.03;;
33738;SDS011;20063;51.730;11.110;2023-04-02T17:31:32;7.30;;;3.00;;
33738;SDS011;20063;51.730;11.110;2023-04-02T17:34:10;14.30;;;4.25;;
33738;SDS011;20063;51.730;11.110;2023-04-02T17:45:46;9.02;;;2.45;;
33738;SDS011;20063;51.730;11.110;2023-04-02T17:48:24;8.87;;;2.50;;
33738;SDS011;20063;51.730;11.110;2023-04-02T17:53:49;16.10;;;3.47;;
33738;SDS011;20063;51.730;11.110;2023-04-02T17:56:56;10.95;;;2.38;;
33738;SDS011;20063;51.730;11.110;2023-04-02T18:21:23;15.40;;;3.90;;
33738;SDS011;20063;51.730;11.110;2023-04-02T18:35:24;9.93;;;2.83;;
33738;SDS011;20063;51.730;11.110;2023-04-02T18:43:38;9.68;;;3.40;;
33738;SDS011;20063;51.730;11.110;2023-04-02T18:46:34;10.52;;;3.55;;
33738;SDS011;20063;51.730;11.110;2023-04-02T18:49:22;10.20;;;2.83;;
33738;SDS011;20063;51.730;11.110;2023-04-02T18:54:38;15.75;;;3.75;;
33738;SDS011;20063;51.730;11.110;2023-04-02T19:05:40;9.45;;;3.28;;
33738;SDS011;20063;51.730;11.110;2023-04-02T19:08:19;12.02;;;2.83;;
33738;SDS011;20063;51.730;11.110;2023-04-02T19:10:52;10.40;;;3.03;;
33738;SDS011;20063;51.730;11.110;2023-04-02T19:13:23;9.27;;;2.60;;
33738;SDS011;20063;51.730;11.110;2023-04-02T19:29:49;5.78;;;3.05;;
33738;SDS011;20063;51.730;11.110;2023-04-02T19:38:29;7.57;;;2.83;;
33738;SDS011;20063;51.730;11.110;2023-04-02T19:43:41;13.07;;;2.80;;
33738;SDS011;20063;51.730;11.110;2023-04-02T19:46:07;7.85;;;2.38;;
33738;SDS011;20063;51.730;11.110;2023-04-02T19:48:36;9.43;;;2.42;;
33738;SDS011;20063;51.730;11.110;2023-04-02T19:51:10;8.55;;;2.88;;
33738;SDS011;20063;51.730;11.110;2023-04-02T19:53:36;11.68;;;2.92;;
33738;SDS011;20063;51.730;11.110;2023-04-02T19:56:01;3.15;;;2.33;;
33738;SDS011;20063;51.730;11.110;2023-04-02T19:58:28;7.85;;;3.13;;
33738;SDS011;20063;51.730;11.110;2023-04-02T20:00:55;6.57;;;2.58;;
33738;SDS011;20063;51.730;11.110;2023-04-02T20:03:21;16.98;;;3.22;;
33738;SDS011;20063;51.730;11.110;2023-04-02T20:05:47;10.90;;;2.97;;
33738;SDS011;20063;51.730;11.110;2023-04-02T20:08:13;8.30;;;2.80;;
33738;SDS011;20063;51.730;11.110;2023-04-02T20:10:39;8.75;;;3.30;;
33738;SDS011;20063;51.730;11.110;2023-04-02T20:13:05;8.60;;;2.88;;
33738;SDS011;20063;51.730;11.110;2023-04-02T20:15:30;6.70;;;2.70;;
33738;SDS011;20063;51.730;11.110;2023-04-02T20:17:56;5.63;;;2.60;;
33738;SDS011;20063;51.730;11.110;2023-04-02T20:20:22;10.77;;;2.63;;
33738;SDS011;20063;51.730;11.110;2023-04-02T20:22:48;12.85;;;2.60;;
33738;SDS011;20063;51.730;11.110;2023-04-02T20:25:13;10.32;;;3.30;;
33738;SDS011;20063;51.730;11.110;2023-04-02T20:27:40;10.80;;;2.78;;
33738;SDS011;20063;51.730;11.110;2023-04-02T20:30:05;10.07;;;3.05;;
33738;SDS011;20063;51.730;11.110;2023-04-02T20:32:33;3.83;;;2.05;;
33738;SDS011;20063;51.730;11.110;2023-04-02T20:34:59;8.85;;;2.85;;
33738;SDS011;20063;51.730;11.110;2023-04-02T20:37:25;14.82;;;3.00;;
33738;SDS011;20063;51.730;11.110;2023-04-02T20:39:50;11.73;;;2.90;;
33738;SDS011;20063;51.730;11.110;2023-04-02T20:42:16;8.43;;;2.90;;
33738;SDS011;20063;51.730;11.110;2023-04-02T20:44:42;9.82;;;2.45;;
33738;SDS011;20063;51.730;11.110;2023-04-02T20:47:08;9.85;;;2.45;;
33738;SDS011;20063;51.730;11.110;2023-04-02T20:49:35;10.13;;;3.22;;
33738;SDS011;20063;51.730;11.110;2023-04-02T20:52:01;13.15;;;3.08;;
33738;SDS011;20063;51.730;11.110;2023-04-02T20:54:27;11.20;;;2.72;;